sensor_id;sensor_type;location;lat;lon;timestamp;P1;durP1;ratioP1;P2;durP2;ratioP2
82727;SDS011;72459;50.110;8.750;2023-12-20T00:00:18;6.50;;;3.55;;
82727;SDS011;72459;50.110;8.750;2023-12-20T00:02:44;10.45;;;3.38;;
82727;SDS011;72459;50.110;8.750;2023-12-20T00:05:12;5.20;;;3.38;;
82727;SDS011;72459;50.110;8.750;2023-12-20T00:07:39;6.63;;;3.55;;
82727;SDS011;72459;50.110;8.750;2023-12-20T00:10:06;6.25;;;3.58;;
82727;SDS011;72459;50.110;8.750;2023-12-20T00:12:32;6.82;;;3.45;;
82727;SDS011;72459;50.110;8.750;2023-12-20T00:14:57;5.47;;;3.40;;
82727;SDS011;72459;50.110;8.750;2023-12-20T00:17:23;7.13;;;3.70;;
82727;SDS011;72459;50.110;8.750;2023-12-20T00:19:48;5.40;;;3.40;;
82727;SDS011;72459;50.110;8.750;2023-12-20T00:22:13;6.67;;;3.37;;
82727;SDS011;72459;50.110;8.750;2023-12-20T00:24:39;5.20;;;2.83;;
82727;SDS011;72459;50.110;8.750;2023-12-20T00:27:05;5.00;;;3.22;;
82727;SDS011;72459;50.110;8.750;2023-12-20T00:29:30;7.38;;;3.50;;
82727;SDS011;72459;50.110;8.750;2023-12-20T00:31:56;5.80;;;3.67;;
82727;SDS011;72459;50.110;8.750;2023-12-20T00:34:21;5.15;;;3.20;;
82727;SDS011;72459;50.110;8.750;2023-12-20T00:36:46;5.23;;;3.47;;
82727;SDS011;72459;50.110;8.750;2023-12-20T00:39:12;5.47;;;3.00;;
82727;SDS011;72459;50.110;8.750;2023-12-20T00:41:37;5.00;;;2.88;;
82727;SDS011;72459;50.110;8.750;2023-12-20T00:44:03;5.77;;;3.23;;
82727;SDS011;72459;50.110;8.750;2023-12-20T00:46:28;7.00;;;3.47;;
82727;SDS011;72459;50.110;8.750;2023-12-20T00:48:53;6.13;;;3.47;;
82727;SDS011;72459;50.110;8.750;2023-12-20T00:51:19;4.18;;;2.67;;
82727;SDS011;72459;50.110;8.750;2023-12-20T00:53:44;4.80;;;2.47;;
82727;SDS011;72459;50.110;8.750;2023-12-20T00:56:11;5.05;;;3.20;;
82727;SDS011;72459;50.110;8.750;2023-12-20T00:58:36;7.38;;;2.85;;
82727;SDS011;72459;50.110;8.750;2023-12-20T01:01:02;6.35;;;3.33;;
82727;SDS011;72459;50.110;8.750;2023-12-20T01:03:28;5.15;;;3.17;;
82727;SDS011;72459;50.110;8.750;2023-12-20T01:05:54;6.53;;;3.05;;
82727;SDS011;72459;50.110;8.750;2023-12-20T01:08:19;6.53;;;2.97;;
82727;SDS011;72459;50.110;8.750;2023-12-20T01:10:44;4.50;;;2.70;;
82727;SDS011;72459;50.110;8.750;2023-12-20T01:13:11;3.97;;;2.58;;
82727;SDS011;72459;50.110;8.750;2023-12-20T01:15:37;4.50;;;3.13;;
82727;SDS011;72459;50.110;8.750;2023-12-20T01:18:02;6.57;;;2.95;;
82727;SDS011;72459;50.110;8.750;2023-12-20T01:20:28;4.93;;;2.75;;
82727;SDS011;72459;50.110;8.750;2023-12-20T01:22:53;2.95;;;2.22;;
82727;SDS011;72459;50.110;8.750;2023-12-20T01:25:19;5.22;;;3.45;;
82727;SDS011;72459;50.110;8.750;2023-12-20T01:27:44;4.90;;;2.55;;
82727;SDS011;72459;50.110;8.750;2023-12-20T01:30:10;4.88;;;2.90;;
82727;SDS011;72459;50.110;8.750;2023-12-20T01:32:36;3.55;;;2.70;;
82727;SDS011;72459;50.110;8.750;2023-12-20T01:35:01;4.28;;;3.05;;
82727;SDS011;72459;50.110;8.750;2023-12-20T01:37:27;7.38;;;3.22;;
82727;SDS011;72459;50.110;8.750;2023-12-20T01:39:55;4.10;;;2.78;;
82727;SDS011;72459;50.110;8.750;2023-12-20T01:42:21;3.85;;;2.42;;
82727;SDS011;72459;50.110;8.750;2023-12-20T01:44:47;4.65;;;2.78;;
82727;SDS011;72459;50.110;8.750;2023-12-20T01:47:13;5.15;;;2.47;;
82727;SDS011;72459;50.110;8.750;2023-12-20T01:49:40;5.43;;;2.88;;
82727;SDS011;72459;50.110;8.750;2023-12-20T01:52:05;4.53;;;2.80;;
82727;SDS011;72459;50.110;8.750;2023-12-20T01:54:32;5.05;;;2.30;;
82727;SDS011;72459;50.110;8.750;2023-12-20T01:56:58;4.65;;;2.30;;
82727;SDS011;72459;50.110;8.750;2023-12-20T01:59:24;5.32;;;2.63;;
82727;SDS011;72459;50.110;8.750;2023-12-20T02:01:49;3.42;;;2.22;;
82727;SDS011;72459;50.110;8.750;2023-12-20T02:04:15;4.60;;;2.63;;
82727;SDS011;72459;50.110;8.750;2023-12-20T02:06:41;5.28;;;2.47;;
82727;SDS011;72459;50.110;8.750;2023-12-20T02:09:08;5.10;;;2.80;;
82727;SDS011;72459;50.110;8.750;2023-12-20T02:11:34;4.10;;;2.17;;
82727;SDS011;72459;50.110;8.750;2023-12-20T02:14:01;4.30;;;2.50;;
82727;SDS011;72459;50.110;8.750;2023-12-20T02:16:26;3.95;;;2.45;;
82727;SDS011;72459;50.110;8.750;2023-12-20T02:18:52;3.60;;;2.13;;
82727;SDS011;72459;50.110;8.750;2023-12-20T02:21:17;4.18;;;2.17;;
82727;SDS011;72459;50.110;8.750;2023-12-20T02:23:43;4.05;;;2.25;;
82727;SDS011;72459;50.110;8.750;2023-12-20T02:26:08;4.07;;;2.40;;
82727;SDS011;72459;50.110;8.750;2023-12-20T02:28:33;3.67;;;2.13;;
82727;SDS011;72459;50.110;8.750;2023-12-20T02:30:59;3.50;;;2.28;;
82727;SDS011;72459;50.110;8.750;2023-12-20T02:33:28;2.78;;;1.95;;
82727;SDS011;72459;50.110;8.750;2023-12-20T02:35:53;3.83;;;2.20;;
82727;SDS011;72459;50.110;8.750;2023-12-20T02:38:18;2.58;;;1.75;;
82727;SDS011;72459;50.110;8.750;2023-12-20T02:40:45;3.35;;;2.00;;
82727;SDS011;72459;50.110;8.750;2023-12-20T02:43:11;3.65;;;2.08;;
82727;SDS011;72459;50.110;8.750;2023-12-20T02:45:37;3.17;;;1.77;;
82727;SDS011;72459;50.110;8.750;2023-12-20T02:48:03;3.08;;;1.85;;
82727;SDS011;72459;50.110;8.750;2023-12-20T02:50:28;4.13;;;2.33;;
82727;SDS011;72459;50.110;8.750;2023-12-20T02:52:54;3.50;;;2.08;;
82727;SDS011;72459;50.110;8.750;2023-12-20T02:55:19;3.85;;;2.20;;
82727;SDS011;72459;50.110;8.750;2023-12-20T02:57:45;2.95;;;1.90;;
82727;SDS011;72459;50.110;8.750;2023-12-20T03:00:12;2.83;;;1.77;;
82727;SDS011;72459;50.110;8.750;2023-12-20T03:02:39;3.72;;;1.92;;
82727;SDS011;72459;50.110;8.750;2023-12-20T03:05:04;3.05;;;2.00;;
82727;SDS011;72459;50.110;8.750;2023-12-20T03:07:30;4.15;;;2.15;;
82727;SDS011;72459;50.110;8.750;2023-12-20T03:09:56;2.90;;;2.08;;
82727;SDS011;72459;50.110;8.750;2023-12-20T03:12:21;2.80;;;1.60;;
82727;SDS011;72459;50.110;8.750;2023-12-20T03:14:47;4.18;;;1.77;;
82727;SDS011;72459;50.110;8.750;2023-12-20T03:17:13;4.78;;;2.30;;
82727;SDS011;72459;50.110;8.750;2023-12-20T03:19:38;2.80;;;1.83;;
82727;SDS011;72459;50.110;8.750;2023-12-20T03:22:05;3.25;;;1.75;;
82727;SDS011;72459;50.110;8.750;2023-12-20T03:24:30;3.80;;;1.80;;
82727;SDS011;72459;50.110;8.750;2023-12-20T03:26:56;3.58;;;2.20;;
82727;SDS011;72459;50.110;8.750;2023-12-20T03:29:21;3.37;;;2.00;;
82727;SDS011;72459;50.110;8.750;2023-12-20T03:31:46;2.40;;;1.70;;
82727;SDS011;72459;50.110;8.750;2023-12-20T03:34:12;2.13;;;1.50;;
82727;SDS011;72459;50.110;8.750;2023-12-20T03:36:37;3.85;;;1.77;;
82727;SDS011;72459;50.110;8.750;2023-12-20T03:39:02;3.83;;;1.80;;
82727;SDS011;72459;50.110;8.750;2023-12-20T03:41:28;3.58;;;2.08;;
82727;SDS011;72459;50.110;8.750;2023-12-20T03:43:53;2.75;;;1.63;;
82727;SDS011;72459;50.110;8.750;2023-12-20T03:46:19;2.65;;;1.65;;
82727;SDS011;72459;50.110;8.750;2023-12-20T03:48:44;3.05;;;2.17;;
82727;SDS011;72459;50.110;8.750;2023-12-20T03:51:10;4.25;;;1.88;;
82727;SDS011;72459;50.110;8.750;2023-12-20T03:53:35;3.13;;;1.70;;
82727;SDS011;72459;50.110;8.750;2023-12-20T03:56:01;2.55;;;1.70;;
82727;SDS011;72459;50.110;8.750;2023-12-20T03:58:26;3.13;;;1.85;;
82727;SDS011;72459;50.110;8.750;2023-12-20T04:00:52;3.20;;;1.90;;
82727;SDS011;72459;50.110;8.750;2023-12-20T04:03:17;3.57;;;1.83;;
82727;SDS011;72459;50.110;8.750;2023-12-20T04:05:42;3.40;;;1.85;;
82727;SDS011;72459;50.110;8.750;2023-12-20T04:08:09;3.78;;;1.75;;
82727;SDS011;72459;50.110;8.750;2023-12-20T04:10:34;3.10;;;1.90;;
82727;SDS011;72459;50.110;8.750;2023-12-20T04:13:02;4.20;;;2.30;;
82727;SDS011;72459;50.110;8.750;2023-12-20T04:15:28;2.80;;;1.90;;
82727;SDS011;72459;50.110;8.750;2023-12-20T04:17:56;2.72;;;2.00;;
82727;SDS011;72459;50.110;8.750;2023-12-20T04:20:21;3.15;;;2.10;;
82727;SDS011;72459;50.110;8.750;2023-12-20T04:22:46;3.50;;;1.90;;
82727;SDS011;72459;50.110;8.750;2023-12-20T04:25:12;3.78;;;1.88;;
82727;SDS011;72459;50.110;8.750;2023-12-20T04:27:39;2.90;;;1.98;;
82727;SDS011;72459;50.110;8.750;2023-12-20T04:30:04;4.13;;;2.35;;
82727;SDS011;72459;50.110;8.750;2023-12-20T04:32:32;2.83;;;1.70;;
82727;SDS011;72459;50.110;8.750;2023-12-20T04:34:58;2.70;;;1.73;;
82727;SDS011;72459;50.110;8.750;2023-12-20T04:37:23;4.55;;;1.88;;
82727;SDS011;72459;50.110;8.750;2023-12-20T04:39:49;3.85;;;2.00;;
82727;SDS011;72459;50.110;8.750;2023-12-20T04:42:15;3.08;;;2.03;;
82727;SDS011;72459;50.110;8.750;2023-12-20T04:44:40;2.37;;;1.50;;
82727;SDS011;72459;50.110;8.750;2023-12-20T04:47:05;3.65;;;1.90;;
82727;SDS011;72459;50.110;8.750;2023-12-20T04:49:31;4.18;;;2.00;;
82727;SDS011;72459;50.110;8.750;2023-12-20T04:51:56;2.47;;;1.25;;
82727;SDS011;72459;50.110;8.750;2023-12-20T04:54:22;2.10;;;1.50;;
82727;SDS011;72459;50.110;8.750;2023-12-20T04:56:47;2.35;;;1.65;;
82727;SDS011;72459;50.110;8.750;2023-12-20T04:59:14;2.63;;;1.58;;
82727;SDS011;72459;50.110;8.750;2023-12-20T05:01:40;3.72;;;1.80;;
82727;SDS011;72459;50.110;8.750;2023-12-20T05:04:05;3.20;;;1.83;;
82727;SDS011;72459;50.110;8.750;2023-12-20T05:06:30;3.57;;;1.83;;
82727;SDS011;72459;50.110;8.750;2023-12-20T05:08:56;2.97;;;1.90;;
82727;SDS011;72459;50.110;8.750;2023-12-20T05:11:21;3.80;;;1.90;;
82727;SDS011;72459;50.110;8.750;2023-12-20T05:13:47;3.70;;;2.17;;
82727;SDS011;72459;50.110;8.750;2023-12-20T05:16:12;3.80;;;2.10;;
82727;SDS011;72459;50.110;8.750;2023-12-20T05:18:39;2.97;;;1.85;;
82727;SDS011;72459;50.110;8.750;2023-12-20T05:21:05;3.78;;;1.92;;
82727;SDS011;72459;50.110;8.750;2023-12-20T05:23:30;4.70;;;1.98;;
82727;SDS011;72459;50.110;8.750;2023-12-20T05:25:55;2.77;;;1.83;;
82727;SDS011;72459;50.110;8.750;2023-12-20T05:28:21;2.60;;;1.67;;
82727;SDS011;72459;50.110;8.750;2023-12-20T05:30:46;3.35;;;1.90;;
82727;SDS011;72459;50.110;8.750;2023-12-20T05:33:11;3.42;;;1.80;;
82727;SDS011;72459;50.110;8.750;2023-12-20T05:35:37;3.47;;;1.90;;
82727;SDS011;72459;50.110;8.750;2023-12-20T05:38:02;4.20;;;1.97;;
82727;SDS011;72459;50.110;8.750;2023-12-20T05:40:27;4.57;;;2.20;;
82727;SDS011;72459;50.110;8.750;2023-12-20T05:42:53;4.68;;;2.40;;
82727;SDS011;72459;50.110;8.750;2023-12-20T05:45:19;4.30;;;2.22;;
82727;SDS011;72459;50.110;8.750;2023-12-20T05:47:44;3.55;;;2.45;;
82727;SDS011;72459;50.110;8.750;2023-12-20T05:50:09;6.13;;;2.40;;
82727;SDS011;72459;50.110;8.750;2023-12-20T05:52:35;3.45;;;2.05;;
82727;SDS011;72459;50.110;8.750;2023-12-20T05:55:00;4.70;;;2.30;;
82727;SDS011;72459;50.110;8.750;2023-12-20T05:57:28;3.92;;;2.50;;
82727;SDS011;72459;50.110;8.750;2023-12-20T05:59:53;3.95;;;2.63;;
82727;SDS011;72459;50.110;8.750;2023-12-20T06:02:19;4.90;;;2.47;;
82727;SDS011;72459;50.110;8.750;2023-12-20T06:04:44;6.20;;;2.83;;
82727;SDS011;72459;50.110;8.750;2023-12-20T06:07:14;4.35;;;2.60;;
82727;SDS011;72459;50.110;8.750;2023-12-20T06:09:42;5.15;;;2.38;;
82727;SDS011;72459;50.110;8.750;2023-12-20T06:12:08;5.78;;;2.53;;
82727;SDS011;72459;50.110;8.750;2023-12-20T06:14:34;7.50;;;2.40;;
82727;SDS011;72459;50.110;8.750;2023-12-20T06:17:00;6.28;;;2.40;;
82727;SDS011;72459;50.110;8.750;2023-12-20T06:19:26;4.75;;;1.88;;
82727;SDS011;72459;50.110;8.750;2023-12-20T06:21:51;5.18;;;1.65;;
82727;SDS011;72459;50.110;8.750;2023-12-20T06:24:17;6.18;;;1.77;;
82727;SDS011;72459;50.110;8.750;2023-12-20T06:26:42;4.37;;;1.50;;
82727;SDS011;72459;50.110;8.750;2023-12-20T06:29:08;4.95;;;1.58;;
82727;SDS011;72459;50.110;8.750;2023-12-20T06:31:34;4.28;;;1.50;;
82727;SDS011;72459;50.110;8.750;2023-12-20T06:33:59;4.18;;;1.30;;
82727;SDS011;72459;50.110;8.750;2023-12-20T06:36:25;3.42;;;1.10;;
82727;SDS011;72459;50.110;8.750;2023-12-20T06:38:52;4.25;;;1.23;;
82727;SDS011;72459;50.110;8.750;2023-12-20T06:41:18;5.38;;;1.38;;
82727;SDS011;72459;50.110;8.750;2023-12-20T06:43:43;3.13;;;0.90;;
82727;SDS011;72459;50.110;8.750;2023-12-20T06:46:09;1.60;;;1.00;;
82727;SDS011;72459;50.110;8.750;2023-12-20T06:48:35;4.40;;;1.63;;
82727;SDS011;72459;50.110;8.750;2023-12-20T06:51:00;2.47;;;1.10;;
82727;SDS011;72459;50.110;8.750;2023-12-20T06:53:30;3.75;;;1.17;;
82727;SDS011;72459;50.110;8.750;2023-12-20T06:55:55;3.63;;;1.20;;
82727;SDS011;72459;50.110;8.750;2023-12-20T06:58:21;3.70;;;1.17;;
82727;SDS011;72459;50.110;8.750;2023-12-20T07:00:47;3.25;;;1.45;;
82727;SDS011;72459;50.110;8.750;2023-12-20T07:03:13;4.50;;;1.40;;
82727;SDS011;72459;50.110;8.750;2023-12-20T07:05:39;3.47;;;1.20;;
82727;SDS011;72459;50.110;8.750;2023-12-20T07:08:05;3.60;;;1.40;;
82727;SDS011;72459;50.110;8.750;2023-12-20T07:10:31;3.60;;;1.67;;
82727;SDS011;72459;50.110;8.750;2023-12-20T07:12:57;6.30;;;1.40;;
82727;SDS011;72459;50.110;8.750;2023-12-20T07:15:22;4.40;;;1.80;;
82727;SDS011;72459;50.110;8.750;2023-12-20T07:17:49;4.68;;;1.70;;
82727;SDS011;72459;50.110;8.750;2023-12-20T07:20:14;8.80;;;1.83;;
82727;SDS011;72459;50.110;8.750;2023-12-20T07:22:40;4.03;;;1.60;;
82727;SDS011;72459;50.110;8.750;2023-12-20T07:25:06;3.00;;;1.35;;
82727;SDS011;72459;50.110;8.750;2023-12-20T07:27:32;3.20;;;1.23;;
82727;SDS011;72459;50.110;8.750;2023-12-20T07:29:58;6.45;;;1.65;;
82727;SDS011;72459;50.110;8.750;2023-12-20T07:32:23;3.20;;;1.20;;
82727;SDS011;72459;50.110;8.750;2023-12-20T07:34:49;4.18;;;1.27;;
82727;SDS011;72459;50.110;8.750;2023-12-20T07:37:14;4.87;;;1.33;;
82727;SDS011;72459;50.110;8.750;2023-12-20T07:39:40;3.72;;;1.30;;
82727;SDS011;72459;50.110;8.750;2023-12-20T07:42:07;3.45;;;1.15;;
82727;SDS011;72459;50.110;8.750;2023-12-20T07:44:33;5.43;;;1.85;;
82727;SDS011;72459;50.110;8.750;2023-12-20T07:46:58;3.17;;;1.17;;
82727;SDS011;72459;50.110;8.750;2023-12-20T07:49:26;4.63;;;1.15;;
82727;SDS011;72459;50.110;8.750;2023-12-20T07:51:51;3.97;;;1.23;;
82727;SDS011;72459;50.110;8.750;2023-12-20T07:54:16;6.70;;;1.87;;
82727;SDS011;72459;50.110;8.750;2023-12-20T07:56:42;4.57;;;1.03;;
82727;SDS011;72459;50.110;8.750;2023-12-20T07:59:07;4.38;;;1.20;;
82727;SDS011;72459;50.110;8.750;2023-12-20T08:01:33;2.83;;;1.10;;
82727;SDS011;72459;50.110;8.750;2023-12-20T08:03:58;3.88;;;1.30;;
82727;SDS011;72459;50.110;8.750;2023-12-20T08:06:23;3.15;;;1.33;;
82727;SDS011;72459;50.110;8.750;2023-12-20T08:08:49;4.95;;;1.33;;
82727;SDS011;72459;50.110;8.750;2023-12-20T08:11:14;3.25;;;1.20;;
82727;SDS011;72459;50.110;8.750;2023-12-20T08:13:40;3.40;;;1.40;;
82727;SDS011;72459;50.110;8.750;2023-12-20T08:16:05;2.28;;;1.10;;
82727;SDS011;72459;50.110;8.750;2023-12-20T08:18:31;9.00;;;1.80;;
82727;SDS011;72459;50.110;8.750;2023-12-20T08:20:56;2.40;;;1.20;;
82727;SDS011;72459;50.110;8.750;2023-12-20T08:23:21;2.45;;;1.08;;
82727;SDS011;72459;50.110;8.750;2023-12-20T08:25:47;3.63;;;1.20;;
82727;SDS011;72459;50.110;8.750;2023-12-20T08:28:13;3.00;;;1.20;;
82727;SDS011;72459;50.110;8.750;2023-12-20T08:30:38;3.33;;;1.02;;
82727;SDS011;72459;50.110;8.750;2023-12-20T08:33:04;4.57;;;1.33;;
82727;SDS011;72459;50.110;8.750;2023-12-20T08:35:29;5.13;;;1.40;;
82727;SDS011;72459;50.110;8.750;2023-12-20T08:37:54;4.20;;;1.08;;
82727;SDS011;72459;50.110;8.750;2023-12-20T08:40:20;3.88;;;0.90;;
82727;SDS011;72459;50.110;8.750;2023-12-20T08:42:45;2.92;;;1.00;;
82727;SDS011;72459;50.110;8.750;2023-12-20T08:45:11;4.30;;;1.00;;
82727;SDS011;72459;50.110;8.750;2023-12-20T08:47:36;2.92;;;0.90;;
82727;SDS011;72459;50.110;8.750;2023-12-20T08:50:03;2.67;;;1.00;;
82727;SDS011;72459;50.110;8.750;2023-12-20T08:52:29;4.20;;;0.95;;
82727;SDS011;72459;50.110;8.750;2023-12-20T08:54:54;5.35;;;1.30;;
82727;SDS011;72459;50.110;8.750;2023-12-20T08:57:20;3.20;;;0.80;;
82727;SDS011;72459;50.110;8.750;2023-12-20T08:59:47;5.32;;;1.10;;
82727;SDS011;72459;50.110;8.750;2023-12-20T09:02:13;2.30;;;1.05;;
82727;SDS011;72459;50.110;8.750;2023-12-20T09:04:39;3.72;;;0.80;;
82727;SDS011;72459;50.110;8.750;2023-12-20T09:07:04;4.53;;;0.98;;
82727;SDS011;72459;50.110;8.750;2023-12-20T09:09:29;2.47;;;0.68;;
82727;SDS011;72459;50.110;8.750;2023-12-20T09:11:57;2.88;;;1.02;;
82727;SDS011;72459;50.110;8.750;2023-12-20T09:14:22;4.38;;;1.05;;
82727;SDS011;72459;50.110;8.750;2023-12-20T09:16:48;4.28;;;1.20;;
82727;SDS011;72459;50.110;8.750;2023-12-20T09:19:15;7.07;;;1.17;;
82727;SDS011;72459;50.110;8.750;2023-12-20T09:21:41;5.07;;;1.08;;
82727;SDS011;72459;50.110;8.750;2023-12-20T09:24:06;4.25;;;0.85;;
82727;SDS011;72459;50.110;8.750;2023-12-20T09:26:32;4.78;;;0.82;;
82727;SDS011;72459;50.110;8.750;2023-12-20T09:28:57;3.60;;;1.00;;
82727;SDS011;72459;50.110;8.750;2023-12-20T09:31:22;2.88;;;0.88;;
82727;SDS011;72459;50.110;8.750;2023-12-20T09:33:48;3.60;;;1.52;;
82727;SDS011;72459;50.110;8.750;2023-12-20T09:36:13;5.28;;;1.40;;
82727;SDS011;72459;50.110;8.750;2023-12-20T09:38:39;5.15;;;1.00;;
82727;SDS011;72459;50.110;8.750;2023-12-20T09:41:04;4.80;;;1.10;;
82727;SDS011;72459;50.110;8.750;2023-12-20T09:43:30;5.10;;;1.17;;
82727;SDS011;72459;50.110;8.750;2023-12-20T09:46:00;4.15;;;1.30;;
82727;SDS011;72459;50.110;8.750;2023-12-20T09:48:27;4.18;;;1.17;;
82727;SDS011;72459;50.110;8.750;2023-12-20T09:50:53;3.28;;;1.10;;
82727;SDS011;72459;50.110;8.750;2023-12-20T09:53:19;4.70;;;1.02;;
82727;SDS011;72459;50.110;8.750;2023-12-20T09:55:46;1.33;;;0.75;;
82727;SDS011;72459;50.110;8.750;2023-12-20T09:58:11;3.83;;;1.10;;
82727;SDS011;72459;50.110;8.750;2023-12-20T10:00:37;2.92;;;0.75;;
82727;SDS011;72459;50.110;8.750;2023-12-20T10:03:02;3.50;;;1.40;;
82727;SDS011;72459;50.110;8.750;2023-12-20T10:05:29;4.38;;;1.23;;
82727;SDS011;72459;50.110;8.750;2023-12-20T10:07:56;4.82;;;1.25;;
82727;SDS011;72459;50.110;8.750;2023-12-20T10:10:23;3.25;;;0.90;;
82727;SDS011;72459;50.110;8.750;2023-12-20T10:13:02;3.50;;;1.10;;
82727;SDS011;72459;50.110;8.750;2023-12-20T10:17:54;3.30;;;1.10;;
82727;SDS011;72459;50.110;8.750;2023-12-20T10:20:20;3.80;;;1.10;;
82727;SDS011;72459;50.110;8.750;2023-12-20T10:22:46;4.38;;;1.52;;
82727;SDS011;72459;50.110;8.750;2023-12-20T10:25:11;4.57;;;1.55;;
82727;SDS011;72459;50.110;8.750;2023-12-20T10:27:37;3.80;;;1.27;;
82727;SDS011;72459;50.110;8.750;2023-12-20T10:30:03;5.38;;;1.58;;
82727;SDS011;72459;50.110;8.750;2023-12-20T10:32:29;3.45;;;1.20;;
82727;SDS011;72459;50.110;8.750;2023-12-20T10:34:55;3.70;;;1.23;;
82727;SDS011;72459;50.110;8.750;2023-12-20T10:37:21;3.35;;;1.23;;
82727;SDS011;72459;50.110;8.750;2023-12-20T10:39:50;6.15;;;1.23;;
82727;SDS011;72459;50.110;8.750;2023-12-20T10:42:19;9.15;;;1.58;;
82727;SDS011;72459;50.110;8.750;2023-12-20T10:44:46;5.75;;;1.42;;
82727;SDS011;72459;50.110;8.750;2023-12-20T10:47:12;4.57;;;1.20;;
82727;SDS011;72459;50.110;8.750;2023-12-20T10:49:38;4.05;;;1.40;;
82727;SDS011;72459;50.110;8.750;2023-12-20T10:52:05;5.80;;;1.15;;
82727;SDS011;72459;50.110;8.750;2023-12-20T10:54:32;5.50;;;1.27;;
82727;SDS011;72459;50.110;8.750;2023-12-20T10:56:58;7.18;;;1.40;;
82727;SDS011;72459;50.110;8.750;2023-12-20T10:59:24;6.22;;;1.50;;
82727;SDS011;72459;50.110;8.750;2023-12-20T11:01:50;5.05;;;1.30;;
82727;SDS011;72459;50.110;8.750;2023-12-20T11:04:19;5.50;;;1.33;;
82727;SDS011;72459;50.110;8.750;2023-12-20T11:06:58;3.28;;;1.42;;
82727;SDS011;72459;50.110;8.750;2023-12-20T11:09:34;4.00;;;1.42;;
82727;SDS011;72459;50.110;8.750;2023-12-20T11:17:15;2.78;;;1.27;;
82727;SDS011;72459;50.110;8.750;2023-12-20T11:22:23;3.60;;;1.08;;
82727;SDS011;72459;50.110;8.750;2023-12-20T11:27:17;4.30;;;1.30;;
82727;SDS011;72459;50.110;8.750;2023-12-20T11:29:50;3.20;;;1.25;;
82727;SDS011;72459;50.110;8.750;2023-12-20T11:37:36;4.20;;;1.02;;
82727;SDS011;72459;50.110;8.750;2023-12-20T11:40:03;5.30;;;0.88;;
82727;SDS011;72459;50.110;8.750;2023-12-20T11:42:52;4.13;;;1.40;;
82727;SDS011;72459;50.110;8.750;2023-12-20T11:45:19;4.47;;;1.00;;
82727;SDS011;72459;50.110;8.750;2023-12-20T11:47:49;2.83;;;0.98;;
82727;SDS011;72459;50.110;8.750;2023-12-20T11:50:15;3.67;;;0.90;;
82727;SDS011;72459;50.110;8.750;2023-12-20T11:52:44;6.00;;;1.20;;
82727;SDS011;72459;50.110;8.750;2023-12-20T11:55:10;2.60;;;1.02;;
82727;SDS011;72459;50.110;8.750;2023-12-20T11:57:36;2.17;;;1.00;;
82727;SDS011;72459;50.110;8.750;2023-12-20T12:00:02;3.65;;;1.20;;
82727;SDS011;72459;50.110;8.750;2023-12-20T12:02:28;4.43;;;0.98;;
82727;SDS011;72459;50.110;8.750;2023-12-20T12:04:53;7.10;;;1.60;;
82727;SDS011;72459;50.110;8.750;2023-12-20T12:07:20;3.63;;;0.77;;
82727;SDS011;72459;50.110;8.750;2023-12-20T12:09:45;4.55;;;1.23;;
82727;SDS011;72459;50.110;8.750;2023-12-20T12:12:11;3.30;;;1.05;;
82727;SDS011;72459;50.110;8.750;2023-12-20T12:14:37;4.60;;;1.30;;
82727;SDS011;72459;50.110;8.750;2023-12-20T12:17:05;6.32;;;1.08;;
82727;SDS011;72459;50.110;8.750;2023-12-20T12:19:35;5.03;;;1.00;;
82727;SDS011;72459;50.110;8.750;2023-12-20T12:22:08;4.85;;;1.10;;
82727;SDS011;72459;50.110;8.750;2023-12-20T12:24:45;6.55;;;1.25;;
82727;SDS011;72459;50.110;8.750;2023-12-20T12:27:12;2.78;;;0.80;;
82727;SDS011;72459;50.110;8.750;2023-12-20T12:29:38;6.93;;;0.80;;
82727;SDS011;72459;50.110;8.750;2023-12-20T12:32:05;3.75;;;1.00;;
82727;SDS011;72459;50.110;8.750;2023-12-20T12:34:34;4.03;;;0.85;;
82727;SDS011;72459;50.110;8.750;2023-12-20T12:37:01;3.88;;;1.15;;
82727;SDS011;72459;50.110;8.750;2023-12-20T12:39:27;4.43;;;0.90;;
82727;SDS011;72459;50.110;8.750;2023-12-20T12:41:54;3.08;;;0.95;;
82727;SDS011;72459;50.110;8.750;2023-12-20T12:44:20;3.00;;;1.30;;
82727;SDS011;72459;50.110;8.750;2023-12-20T12:49:18;3.03;;;1.02;;
82727;SDS011;72459;50.110;8.750;2023-12-20T12:51:44;4.95;;;0.80;;
82727;SDS011;72459;50.110;8.750;2023-12-20T12:54:09;4.53;;;0.98;;
82727;SDS011;72459;50.110;8.750;2023-12-20T12:56:38;3.63;;;1.20;;
82727;SDS011;72459;50.110;8.750;2023-12-20T12:59:04;3.97;;;1.02;;
82727;SDS011;72459;50.110;8.750;2023-12-20T13:01:30;6.05;;;1.33;;
82727;SDS011;72459;50.110;8.750;2023-12-20T13:03:56;2.38;;;0.77;;
82727;SDS011;72459;50.110;8.750;2023-12-20T13:06:21;2.80;;;0.90;;
82727;SDS011;72459;50.110;8.750;2023-12-20T13:08:51;5.47;;;1.10;;
82727;SDS011;72459;50.110;8.750;2023-12-20T13:11:16;4.90;;;0.90;;
82727;SDS011;72459;50.110;8.750;2023-12-20T13:13:42;5.73;;;1.13;;
82727;SDS011;72459;50.110;8.750;2023-12-20T13:16:07;4.43;;;1.30;;
82727;SDS011;72459;50.110;8.750;2023-12-20T13:18:33;1.98;;;1.05;;
82727;SDS011;72459;50.110;8.750;2023-12-20T13:20:58;2.63;;;1.02;;
82727;SDS011;72459;50.110;8.750;2023-12-20T13:23:24;5.63;;;1.58;;
82727;SDS011;72459;50.110;8.750;2023-12-20T13:25:49;2.60;;;0.88;;
82727;SDS011;72459;50.110;8.750;2023-12-20T13:28:15;3.40;;;1.02;;
82727;SDS011;72459;50.110;8.750;2023-12-20T13:30:40;4.35;;;0.90;;
82727;SDS011;72459;50.110;8.750;2023-12-20T13:33:06;2.85;;;0.80;;
82727;SDS011;72459;50.110;8.750;2023-12-20T13:35:32;2.72;;;1.00;;
82727;SDS011;72459;50.110;8.750;2023-12-20T13:37:58;5.25;;;1.48;;
82727;SDS011;72459;50.110;8.750;2023-12-20T13:40:25;6.32;;;1.30;;
82727;SDS011;72459;50.110;8.750;2023-12-20T13:42:51;2.28;;;0.90;;
82727;SDS011;72459;50.110;8.750;2023-12-20T13:45:16;3.15;;;1.10;;
82727;SDS011;72459;50.110;8.750;2023-12-20T13:47:41;3.33;;;0.98;;
82727;SDS011;72459;50.110;8.750;2023-12-20T13:50:07;4.28;;;1.02;;
82727;SDS011;72459;50.110;8.750;2023-12-20T13:52:32;4.07;;;1.10;;
82727;SDS011;72459;50.110;8.750;2023-12-20T13:54:58;4.87;;;1.17;;
82727;SDS011;72459;50.110;8.750;2023-12-20T13:57:23;5.68;;;1.02;;
82727;SDS011;72459;50.110;8.750;2023-12-20T13:59:49;4.13;;;1.33;;
82727;SDS011;72459;50.110;8.750;2023-12-20T14:02:14;4.78;;;1.10;;
82727;SDS011;72459;50.110;8.750;2023-12-20T14:04:41;5.10;;;1.35;;
82727;SDS011;72459;50.110;8.750;2023-12-20T14:07:07;4.10;;;1.50;;
82727;SDS011;72459;50.110;8.750;2023-12-20T14:09:32;2.05;;;1.00;;
82727;SDS011;72459;50.110;8.750;2023-12-20T14:11:58;6.57;;;1.30;;
82727;SDS011;72459;50.110;8.750;2023-12-20T14:14:24;6.63;;;1.20;;
82727;SDS011;72459;50.110;8.750;2023-12-20T14:16:49;6.07;;;1.20;;
82727;SDS011;72459;50.110;8.750;2023-12-20T14:19:15;5.20;;;1.27;;
82727;SDS011;72459;50.110;8.750;2023-12-20T14:21:40;3.55;;;1.10;;
82727;SDS011;72459;50.110;8.750;2023-12-20T14:24:06;5.45;;;1.33;;
82727;SDS011;72459;50.110;8.750;2023-12-20T14:26:31;3.25;;;1.00;;
82727;SDS011;72459;50.110;8.750;2023-12-20T14:28:57;5.05;;;1.10;;
82727;SDS011;72459;50.110;8.750;2023-12-20T14:31:23;4.22;;;0.90;;
82727;SDS011;72459;50.110;8.750;2023-12-20T14:33:49;4.85;;;1.00;;
82727;SDS011;72459;50.110;8.750;2023-12-20T14:36:16;5.95;;;1.08;;
82727;SDS011;72459;50.110;8.750;2023-12-20T14:38:42;3.50;;;1.00;;
82727;SDS011;72459;50.110;8.750;2023-12-20T14:41:08;3.22;;;0.88;;
82727;SDS011;72459;50.110;8.750;2023-12-20T14:43:34;5.75;;;0.90;;
82727;SDS011;72459;50.110;8.750;2023-12-20T14:45:59;3.80;;;1.10;;
82727;SDS011;72459;50.110;8.750;2023-12-20T14:48:25;3.28;;;1.02;;
82727;SDS011;72459;50.110;8.750;2023-12-20T14:50:52;4.13;;;1.17;;
82727;SDS011;72459;50.110;8.750;2023-12-20T14:53:18;4.10;;;1.20;;
82727;SDS011;72459;50.110;8.750;2023-12-20T14:55:43;5.20;;;1.00;;
82727;SDS011;72459;50.110;8.750;2023-12-20T14:58:09;6.28;;;1.13;;
82727;SDS011;72459;50.110;8.750;2023-12-20T15:00:38;3.30;;;0.80;;